sensor_id;sensor_type;location;lat;lon;timestamp;temperature;humidity
70421;SHT31;57848;51.938;15.520;2023-01-25T00:01:24;1.85;93.73
70421;SHT31;57848;51.938;15.520;2023-01-25T00:03:50;1.74;93.62
70421;SHT31;57848;51.938;15.520;2023-01-25T00:06:15;1.79;93.65
70421;SHT31;57848;51.938;15.520;2023-01-25T00:08:40;1.78;93.71
70421;SHT31;57848;51.938;15.520;2023-01-25T00:11:06;1.89;93.49
70421;SHT31;57848;51.938;15.520;2023-01-25T00:13:31;1.85;93.35
70421;SHT31;57848;51.938;15.520;2023-01-25T00:16:03;1.78;93.11
70421;SHT31;57848;51.938;15.520;2023-01-25T00:18:29;1.79;93.53
70421;SHT31;57848;51.938;15.520;2023-01-25T00:20:55;1.79;93.47
70421;SHT31;57848;51.938;15.520;2023-01-25T00:23:20;1.69;93.52
70421;SHT31;57848;51.938;15.520;2023-01-25T00:25:45;1.74;93.85
70421;SHT31;57848;51.938;15.520;2023-01-25T00:28:11;1.81;93.73
70421;SHT31;57848;51.938;15.520;2023-01-25T00:30:36;1.76;93.62
70421;SHT31;57848;51.938;15.520;2023-01-25T00:33:30;1.74;93.75
70421;SHT31;57848;51.938;15.520;2023-01-25T00:35:55;1.76;93.52
70421;SHT31;57848;51.938;15.520;2023-01-25T00:38:29;1.75;93.91
70421;SHT31;57848;51.938;15.520;2023-01-25T00:40:56;1.76;93.84
70421;SHT31;57848;51.938;15.520;2023-01-25T00:43:22;1.82;93.64
70421;SHT31;57848;51.938;15.520;2023-01-25T00:45:47;1.86;93.55
70421;SHT31;57848;51.938;15.520;2023-01-25T00:48:12;1.82;93.52
70421;SHT31;57848;51.938;15.520;2023-01-25T00:50:38;1.85;93.45
70421;SHT31;57848;51.938;15.520;2023-01-25T00:53:04;1.82;93.46
70421;SHT31;57848;51.938;15.520;2023-01-25T00:55:29;1.89;93.41
70421;SHT31;57848;51.938;15.520;2023-01-25T00:57:54;1.83;92.96
70421;SHT31;57848;51.938;15.520;2023-01-25T01:00:20;1.79;93.15
70421;SHT31;57848;51.938;15.520;2023-01-25T01:02:46;1.66;93.51
70421;SHT31;57848;51.938;15.520;2023-01-25T01:05:11;1.65;93.88
70421;SHT31;57848;51.938;15.520;2023-01-25T01:07:37;1.61;94.05
70421;SHT31;57848;51.938;15.520;2023-01-25T01:10:02;1.58;93.73
70421;SHT31;57848;51.938;15.520;2023-01-25T01:12:28;1.58;93.61
70421;SHT31;57848;51.938;15.520;2023-01-25T01:14:53;1.52;93.97
70421;SHT31;57848;51.938;15.520;2023-01-25T01:17:19;1.56;93.91
70421;SHT31;57848;51.938;15.520;2023-01-25T01:19:46;1.56;93.90
70421;SHT31;57848;51.938;15.520;2023-01-25T01:22:11;1.56;93.62
70421;SHT31;57848;51.938;15.520;2023-01-25T01:24:36;1.58;93.87
70421;SHT31;57848;51.938;15.520;2023-01-25T01:27:02;1.51;94.02
70421;SHT31;57848;51.938;15.520;2023-01-25T01:29:27;1.55;94.11
70421;SHT31;57848;51.938;15.520;2023-01-25T01:31:53;1.55;94.15
70421;SHT31;57848;51.938;15.520;2023-01-25T01:34:22;1.68;94.07
70421;SHT31;57848;51.938;15.520;2023-01-25T01:36:47;1.61;94.06
70421;SHT31;57848;51.938;15.520;2023-01-25T01:39:14;1.59;93.86
70421;SHT31;57848;51.938;15.520;2023-01-25T01:41:39;1.55;94.02
70421;SHT31;57848;51.938;15.520;2023-01-25T01:44:13;1.59;93.88
70421;SHT31;57848;51.938;15.520;2023-01-25T01:46:42;1.69;93.81
70421;SHT31;57848;51.938;15.520;2023-01-25T01:49:19;1.54;94.01
70421;SHT31;57848;51.938;15.520;2023-01-25T01:51:49;1.69;93.83
70421;SHT31;57848;51.938;15.520;2023-01-25T01:54:33;1.68;94.14
70421;SHT31;57848;51.938;15.520;2023-01-25T01:57:09;1.72;93.97
70421;SHT31;57848;51.938;15.520;2023-01-25T01:59:41;1.68;93.70
70421;SHT31;57848;51.938;15.520;2023-01-25T02:02:07;1.75;93.91
70421;SHT31;57848;51.938;15.520;2023-01-25T02:04:33;1.74;93.86
70421;SHT31;57848;51.938;15.520;2023-01-25T02:07:09;1.69;93.96
70421;SHT31;57848;51.938;15.520;2023-01-25T02:09:36;1.78;93.84
70421;SHT31;57848;51.938;15.520;2023-01-25T02:12:03;1.82;93.81
70421;SHT31;57848;51.938;15.520;2023-01-25T02:14:30;1.71;93.75
70421;SHT31;57848;51.938;15.520;2023-01-25T02:16:58;1.76;93.73
70421;SHT31;57848;51.938;15.520;2023-01-25T02:19:41;1.72;93.87
70421;SHT31;57848;51.938;15.520;2023-01-25T02:22:10;1.82;93.86
70421;SHT31;57848;51.938;15.520;2023-01-25T02:24:46;1.79;94.04
70421;SHT31;57848;51.938;15.520;2023-01-25T02:27:13;1.82;93.83
70421;SHT31;57848;51.938;15.520;2023-01-25T02:29:38;1.85;93.75
70421;SHT31;57848;51.938;15.520;2023-01-25T02:32:05;1.81;93.76
70421;SHT31;57848;51.938;15.520;2023-01-25T02:34:31;1.86;93.76
70421;SHT31;57848;51.938;15.520;2023-01-25T02:36:56;1.82;93.64
70421;SHT31;57848;51.938;15.520;2023-01-25T02:39:22;1.83;93.66
70421;SHT31;57848;51.938;15.520;2023-01-25T02:41:50;1.76;93.59
70421;SHT31;57848;51.938;15.520;2023-01-25T02:44:23;1.82;93.77
70421;SHT31;57848;51.938;15.520;2023-01-25T02:46:49;1.81;93.65
70421;SHT31;57848;51.938;15.520;2023-01-25T02:49:15;1.78;93.53
70421;SHT31;57848;51.938;15.520;2023-01-25T02:51:46;1.85;93.66
70421;SHT31;57848;51.938;15.520;2023-01-25T02:54:13;1.83;93.82
70421;SHT31;57848;51.938;15.520;2023-01-25T02:56:39;1.83;93.64
70421;SHT31;57848;51.938;15.520;2023-01-25T02:59:06;1.78;93.75
70421;SHT31;57848;51.938;15.520;2023-01-25T03:01:34;1.81;93.95
70421;SHT31;57848;51.938;15.520;2023-01-25T03:04:01;1.78;93.93
70421;SHT31;57848;51.938;15.520;2023-01-25T03:06:26;1.75;93.63
70421;SHT31;57848;51.938;15.520;2023-01-25T03:08:52;1.69;94.20
70421;SHT31;57848;51.938;15.520;2023-01-25T03:11:18;1.71;94.28
70421;SHT31;57848;51.938;15.520;2023-01-25T03:13:44;1.78;93.70
70421;SHT31;57848;51.938;15.520;2023-01-25T03:16:11;1.74;93.75
70421;SHT31;57848;51.938;15.520;2023-01-25T03:18:39;1.75;93.91
70421;SHT31;57848;51.938;15.520;2023-01-25T03:21:06;1.79;93.77
70421;SHT31;57848;51.938;15.520;2023-01-25T03:23:32;1.74;93.76
70421;SHT31;57848;51.938;15.520;2023-01-25T03:26:10;1.79;93.67
70421;SHT31;57848;51.938;15.520;2023-01-25T03:28:41;1.79;93.87
70421;SHT31;57848;51.938;15.520;2023-01-25T03:31:09;1.83;93.61
70421;SHT31;57848;51.938;15.520;2023-01-25T03:33:36;1.71;93.89
70421;SHT31;57848;51.938;15.520;2023-01-25T03:36:02;1.75;93.90
70421;SHT31;57848;51.938;15.520;2023-01-25T03:38:28;1.76;93.58
70421;SHT31;57848;51.938;15.520;2023-01-25T03:40:55;1.74;93.91
70421;SHT31;57848;51.938;15.520;2023-01-25T03:43:22;1.81;93.76
70421;SHT31;57848;51.938;15.520;2023-01-25T03:45:57;1.83;93.65
70421;SHT31;57848;51.938;15.520;2023-01-25T03:48:24;1.79;93.54
70421;SHT31;57848;51.938;15.520;2023-01-25T03:50:53;1.78;93.73
70421;SHT31;57848;51.938;15.520;2023-01-25T03:53:23;1.79;93.64
70421;SHT31;57848;51.938;15.520;2023-01-25T03:56:08;1.82;93.58
70421;SHT31;57848;51.938;15.520;2023-01-25T03:58:36;1.82;93.59
70421;SHT31;57848;51.938;15.520;2023-01-25T04:01:04;1.79;93.61
70421;SHT31;57848;51.938;15.520;2023-01-25T04:03:29;1.74;93.74
70421;SHT31;57848;51.938;15.520;2023-01-25T04:05:56;1.82;93.92
70421;SHT31;57848;51.938;15.520;2023-01-25T04:08:22;1.76;93.91
70421;SHT31;57848;51.938;15.520;2023-01-25T04:10:54;1.86;93.69
70421;SHT31;57848;51.938;15.520;2023-01-25T04:13:22;1.79;93.75
70421;SHT31;57848;51.938;15.520;2023-01-25T04:15:49;1.92;93.67
70421;SHT31;57848;51.938;15.520;2023-01-25T04:18:27;1.87;93.58
70421;SHT31;57848;51.938;15.520;2023-01-25T04:20:53;1.93;93.52
70421;SHT31;57848;51.938;15.520;2023-01-25T04:23:19;1.85;93.68
70421;SHT31;57848;51.938;15.520;2023-01-25T04:25:56;1.87;93.77
70421;SHT31;57848;51.938;15.520;2023-01-25T04:28:22;1.87;93.63
70421;SHT31;57848;51.938;15.520;2023-01-25T04:30:48;1.85;93.65
70421;SHT31;57848;51.938;15.520;2023-01-25T04:33:15;1.82;93.72
70421;SHT31;57848;51.938;15.520;2023-01-25T04:35:42;1.83;93.59
70421;SHT31;57848;51.938;15.520;2023-01-25T04:38:08;1.89;93.47
70421;SHT31;57848;51.938;15.520;2023-01-25T04:40:38;1.89;93.66
70421;SHT31;57848;51.938;15.520;2023-01-25T04:43:04;1.92;93.59
70421;SHT31;57848;51.938;15.520;2023-01-25T04:45:31;1.81;93.68
70421;SHT31;57848;51.938;15.520;2023-01-25T04:48:00;1.83;93.72
70421;SHT31;57848;51.938;15.520;2023-01-25T04:50:26;1.82;93.76
70421;SHT31;57848;51.938;15.520;2023-01-25T04:52:52;1.83;94.07
70421;SHT31;57848;51.938;15.520;2023-01-25T04:55:17;1.86;93.78
70421;SHT31;57848;51.938;15.520;2023-01-25T04:57:43;1.87;93.90
70421;SHT31;57848;51.938;15.520;2023-01-25T05:00:09;1.95;93.94
70421;SHT31;57848;51.938;15.520;2023-01-25T05:02:37;1.96;93.69
70421;SHT31;57848;51.938;15.520;2023-01-25T05:05:04;1.99;93.58
70421;SHT31;57848;51.938;15.520;2023-01-25T05:07:30;1.98;93.58
70421;SHT31;57848;51.938;15.520;2023-01-25T05:09:55;1.96;93.85
70421;SHT31;57848;51.938;15.520;2023-01-25T05:12:22;1.93;93.81
70421;SHT31;57848;51.938;15.520;2023-01-25T05:14:54;1.87;94.06
70421;SHT31;57848;51.938;15.520;2023-01-25T05:17:21;1.98;94.01
70421;SHT31;57848;51.938;15.520;2023-01-25T05:19:46;1.93;93.98
70421;SHT31;57848;51.938;15.520;2023-01-25T05:22:17;2.06;93.80
70421;SHT31;57848;51.938;15.520;2023-01-25T05:24:47;2.06;93.64
70421;SHT31;57848;51.938;15.520;2023-01-25T05:27:16;2.07;93.47
70421;SHT31;57848;51.938;15.520;2023-01-25T05:29:55;1.99;93.57
70421;SHT31;57848;51.938;15.520;2023-01-25T05:32:27;2.01;93.62
70421;SHT31;57848;51.938;15.520;2023-01-25T05:34:52;2.06;93.45
70421;SHT31;57848;51.938;15.520;2023-01-25T05:37:19;2.02;93.60
70421;SHT31;57848;51.938;15.520;2023-01-25T05:39:49;1.99;93.83
70421;SHT31;57848;51.938;15.520;2023-01-25T05:42:17;1.95;93.96
70421;SHT31;57848;51.938;15.520;2023-01-25T05:44:43;1.99;93.74
70421;SHT31;57848;51.938;15.520;2023-01-25T05:47:12;1.96;93.76
70421;SHT31;57848;51.938;15.520;2023-01-25T05:49:38;2.03;93.70
70421;SHT31;57848;51.938;15.520;2023-01-25T05:52:05;2.10;93.10
70421;SHT31;57848;51.938;15.520;2023-01-25T05:54:31;1.89;93.68
70421;SHT31;57848;51.938;15.520;2023-01-25T05:57:01;1.96;93.41
70421;SHT31;57848;51.938;15.520;2023-01-25T05:59:27;1.82;93.76
70421;SHT31;57848;51.938;15.520;2023-01-25T06:01:53;1.89;93.74
70421;SHT31;57848;51.938;15.520;2023-01-25T06:04:19;1.91;93.77
70421;SHT31;57848;51.938;15.520;2023-01-25T06:06:44;1.91;93.48
70421;SHT31;57848;51.938;15.520;2023-01-25T06:09:13;1.79;93.71
70421;SHT31;57848;51.938;15.520;2023-01-25T06:11:42;1.86;94.07
70421;SHT31;57848;51.938;15.520;2023-01-25T06:14:09;1.83;93.97
70421;SHT31;57848;51.938;15.520;2023-01-25T06:16:34;1.89;94.00
70421;SHT31;57848;51.938;15.520;2023-01-25T06:19:25;1.96;94.11
70421;SHT31;57848;51.938;15.520;2023-01-25T06:22:05;1.95;93.74
70421;SHT31;57848;51.938;15.520;2023-01-25T06:24:33;1.91;93.50
70421;SHT31;57848;51.938;15.520;2023-01-25T06:26:59;1.98;93.89
70421;SHT31;57848;51.938;15.520;2023-01-25T06:29:24;1.96;93.69
70421;SHT31;57848;51.938;15.520;2023-01-25T06:31:49;1.98;93.97
70421;SHT31;57848;51.938;15.520;2023-01-25T06:34:15;1.98;93.96
70421;SHT31;57848;51.938;15.520;2023-01-25T06:36:41;1.93;94.02
70421;SHT31;57848;51.938;15.520;2023-01-25T06:39:07;1.98;93.69
70421;SHT31;57848;51.938;15.520;2023-01-25T06:41:32;1.96;93.85
70421;SHT31;57848;51.938;15.520;2023-01-25T06:43:57;1.99;93.65
70421;SHT31;57848;51.938;15.520;2023-01-25T06:46:23;1.99;93.02
70421;SHT31;57848;51.938;15.520;2023-01-25T06:48:48;2.06;93.15
70421;SHT31;57848;51.938;15.520;2023-01-25T06:51:15;1.99;93.39
70421;SHT31;57848;51.938;15.520;2023-01-25T06:53:42;2.02;93.13
70421;SHT31;57848;51.938;15.520;2023-01-25T06:56:20;1.92;93.60
70421;SHT31;57848;51.938;15.520;2023-01-25T06:58:46;1.98;93.51
70421;SHT31;57848;51.938;15.520;2023-01-25T07:01:13;2.01;93.67
70421;SHT31;57848;51.938;15.520;2023-01-25T07:03:39;1.91;93.26
70421;SHT31;57848;51.938;15.520;2023-01-25T07:06:07;1.93;93.90
70421;SHT31;57848;51.938;15.520;2023-01-25T07:08:34;1.85;94.09
70421;SHT31;57848;51.938;15.520;2023-01-25T07:11:01;1.98;92.89
70421;SHT31;57848;51.938;15.520;2023-01-25T07:13:28;1.95;93.15
70421;SHT31;57848;51.938;15.520;2023-01-25T07:16:02;1.98;93.31
70421;SHT31;57848;51.938;15.520;2023-01-25T07:18:28;1.93;93.30
70421;SHT31;57848;51.938;15.520;2023-01-25T07:20:54;1.98;93.65
70421;SHT31;57848;51.938;15.520;2023-01-25T07:23:20;1.96;93.51
70421;SHT31;57848;51.938;15.520;2023-01-25T07:25:47;1.85;93.78
70421;SHT31;57848;51.938;15.520;2023-01-25T07:28:14;1.96;93.92
70421;SHT31;57848;51.938;15.520;2023-01-25T07:30:40;1.99;93.41
70421;SHT31;57848;51.938;15.520;2023-01-25T07:33:06;2.02;93.37
70421;SHT31;57848;51.938;15.520;2023-01-25T07:35:31;2.05;93.47
70421;SHT31;57848;51.938;15.520;2023-01-25T07:37:57;2.12;92.83
70421;SHT31;57848;51.938;15.520;2023-01-25T07:40:22;2.02;93.73
70421;SHT31;57848;51.938;15.520;2023-01-25T07:42:50;2.02;93.58
70421;SHT31;57848;51.938;15.520;2023-01-25T07:45:16;1.96;93.46
70421;SHT31;57848;51.938;15.520;2023-01-25T07:47:42;2.03;93.57
70421;SHT31;57848;51.938;15.520;2023-01-25T07:50:08;1.98;93.15
70421;SHT31;57848;51.938;15.520;2023-01-25T07:52:34;2.05;93.13
70421;SHT31;57848;51.938;15.520;2023-01-25T07:54:59;2.12;93.22
70421;SHT31;57848;51.938;15.520;2023-01-25T07:57:25;2.07;93.24
70421;SHT31;57848;51.938;15.520;2023-01-25T07:59:52;2.03;93.37
70421;SHT31;57848;51.938;15.520;2023-01-25T08:02:17;2.06;93.28
70421;SHT31;57848;51.938;15.520;2023-01-25T08:04:43;2.10;92.59
70421;SHT31;57848;51.938;15.520;2023-01-25T08:07:10;2.10;92.61
70421;SHT31;57848;51.938;15.520;2023-01-25T08:09:36;2.10;92.47
70421;SHT31;57848;51.938;15.520;2023-01-25T08:12:01;2.05;93.06
70421;SHT31;57848;51.938;15.520;2023-01-25T08:14:27;2.01;93.12
70421;SHT31;57848;51.938;15.520;2023-01-25T08:16:52;2.03;92.93
70421;SHT31;57848;51.938;15.520;2023-01-25T08:19:18;2.10;92.89
70421;SHT31;57848;51.938;15.520;2023-01-25T08:21:44;1.92;93.02
70421;SHT31;57848;51.938;15.520;2023-01-25T08:24:10;2.05;93.51
70421;SHT31;57848;51.938;15.520;2023-01-25T08:26:36;2.03;93.20
70421;SHT31;57848;51.938;15.520;2023-01-25T08:29:02;2.13;93.29
70421;SHT31;57848;51.938;15.520;2023-01-25T08:31:29;2.12;92.51
70421;SHT31;57848;51.938;15.520;2023-01-25T08:33:55;2.12;92.61
70421;SHT31;57848;51.938;15.520;2023-01-25T08:36:21;2.16;92.20
70421;SHT31;57848;51.938;15.520;2023-01-25T08:38:54;2.17;92.14
70421;SHT31;57848;51.938;15.520;2023-01-25T08:41:20;2.20;91.74
70421;SHT31;57848;51.938;15.520;2023-01-25T08:43:45;2.10;91.90
70421;SHT31;57848;51.938;15.520;2023-01-25T08:46:12;2.03;92.77
70421;SHT31;57848;51.938;15.520;2023-01-25T08:48:38;1.96;93.25
70421;SHT31;57848;51.938;15.520;2023-01-25T08:51:07;2.05;93.30
70421;SHT31;57848;51.938;15.520;2023-01-25T08:53:32;2.13;93.17
70421;SHT31;57848;51.938;15.520;2023-01-25T08:56:02;2.13;93.10
70421;SHT31;57848;51.938;15.520;2023-01-25T08:58:28;2.09;93.35
70421;SHT31;57848;51.938;15.520;2023-01-25T09:00:53;2.12;92.78
70421;SHT31;57848;51.938;15.520;2023-01-25T09:03:24;2.13;93.41
70421;SHT31;57848;51.938;15.520;2023-01-25T09:05:50;2.22;93.01
70421;SHT31;57848;51.938;15.520;2023-01-25T09:08:17;2.15;93.33
70421;SHT31;57848;51.938;15.520;2023-01-25T09:10:43;2.27;92.94
70421;SHT31;57848;51.938;15.520;2023-01-25T09:13:08;2.33;92.37
70421;SHT31;57848;51.938;15.520;2023-01-25T09:15:33;2.29;92.22
70421;SHT31;57848;51.938;15.520;2023-01-25T09:17:59;2.17;92.86
70421;SHT31;57848;51.938;15.520;2023-01-25T09:20:24;2.32;92.66
70421;SHT31;57848;51.938;15.520;2023-01-25T09:22:50;2.34;92.86
70421;SHT31;57848;51.938;15.520;2023-01-25T09:25:15;2.36;92.27
70421;SHT31;57848;51.938;15.520;2023-01-25T09:27:41;2.38;92.11
70421;SHT31;57848;51.938;15.520;2023-01-25T09:30:09;2.32;92.59
70421;SHT31;57848;51.938;15.520;2023-01-25T09:32:35;2.33;92.33
70421;SHT31;57848;51.938;15.520;2023-01-25T09:35:01;2.26;93.10
70421;SHT31;57848;51.938;15.520;2023-01-25T09:37:26;2.26;92.68
70421;SHT31;57848;51.938;15.520;2023-01-25T09:39:52;2.29;92.31
70421;SHT31;57848;51.938;15.520;2023-01-25T09:42:38;2.36;91.94
70421;SHT31;57848;51.938;15.520;2023-01-25T09:45:14;2.36;91.89
70421;SHT31;57848;51.938;15.520;2023-01-25T09:50:26;2.38;91.91
70421;SHT31;57848;51.938;15.520;2023-01-25T09:55:40;2.32;91.93
70421;SHT31;57848;51.938;15.520;2023-01-25T09:58:11;2.51;92.40
70421;SHT31;57848;51.938;15.520;2023-01-25T10:00:41;2.47;91.60
70421;SHT31;57848;51.938;15.520;2023-01-25T10:06:21;2.37;92.44
70421;SHT31;57848;51.938;15.520;2023-01-25T10:11:45;2.50;91.06
70421;SHT31;57848;51.938;15.520;2023-01-25T10:14:14;2.36;90.92
70421;SHT31;57848;51.938;15.520;2023-01-25T10:20:18;2.45;91.95
70421;SHT31;57848;51.938;15.520;2023-01-25T10:22:22;2.40;92.18
70421;SHT31;57848;51.938;15.520;2023-01-25T10:30:31;2.32;92.13
70421;SHT31;57848;51.938;15.520;2023-01-25T10:33:01;2.33;92.15
70421;SHT31;57848;51.938;15.520;2023-01-25T10:35:35;2.40;92.70
70421;SHT31;57848;51.938;15.520;2023-01-25T10:38:31;2.48;92.78
70421;SHT31;57848;51.938;15.520;2023-01-25T10:43:44;2.50;90.43
70421;SHT31;57848;51.938;15.520;2023-01-25T10:46:19;2.32;91.45
70421;SHT31;57848;51.938;15.520;2023-01-25T10:48:45;2.38;91.94
70421;SHT31;57848;51.938;15.520;2023-01-25T10:51:27;2.47;91.91
70421;SHT31;57848;51.938;15.520;2023-01-25T10:53:58;2.48;92.10
70421;SHT31;57848;51.938;15.520;2023-01-25T10:56:26;2.50;92.21
70421;SHT31;57848;51.938;15.520;2023-01-25T10:59:05;2.41;91.20
70421;SHT31;57848;51.938;15.520;2023-01-25T11:01:33;2.38;91.34
70421;SHT31;57848;51.938;15.520;2023-01-25T11:04:01;2.51;91.47
70421;SHT31;57848;51.938;15.520;2023-01-25T11:06:37;2.45;91.40
70421;SHT31;57848;51.938;15.520;2023-01-25T11:11:53;2.62;91.36
70421;SHT31;57848;51.938;15.520;2023-01-25T11:14:22;2.62;91.13
70421;SHT31;57848;51.938;15.520;2023-01-25T11:16:48;2.70;91.59
70421;SHT31;57848;51.938;15.520;2023-01-25T11:19:40;2.78;90.36
70421;SHT31;57848;51.938;15.520;2023-01-25T11:24:44;2.75;90.04
70421;SHT31;57848;51.938;15.520;2023-01-25T11:29:46;2.55;91.62
70421;SHT31;57848;51.938;15.520;2023-01-25T11:32:31;2.45;91.16
70421;SHT31;57848;51.938;15.520;2023-01-25T11:34:57;2.58;91.51
70421;SHT31;57848;51.938;15.520;2023-01-25T11:40:32;2.60;91.13
70421;SHT31;57848;51.938;15.520;2023-01-25T11:49:02;2.34;91.83
70421;SHT31;57848;51.938;15.520;2023-01-25T12:00:29;2.50;91.81
70421;SHT31;57848;51.938;15.520;2023-01-25T12:03:04;2.45;90.86
70421;SHT31;57848;51.938;15.520;2023-01-25T12:08:17;2.48;92.14
70421;SHT31;57848;51.938;15.520;2023-01-25T12:14:05;2.54;91.40
70421;SHT31;57848;51.938;15.520;2023-01-25T12:22:49;2.51;91.25
70421;SHT31;57848;51.938;15.520;2023-01-25T12:30:46;2.44;90.73
70421;SHT31;57848;51.938;15.520;2023-01-25T12:35:58;2.43;91.94
70421;SHT31;57848;51.938;15.520;2023-01-25T12:38:32;2.38;91.09
70421;SHT31;57848;51.938;15.520;2023-01-25T12:43:53;2.29;91.61
70421;SHT31;57848;51.938;15.520;2023-01-25T12:46:35;2.22;91.83
70421;SHT31;57848;51.938;15.520;2023-01-25T12:49:10;2.29;91.39
70421;SHT31;57848;51.938;15.520;2023-01-25T12:51:41;2.24;91.42
70421;SHT31;57848;51.938;15.520;2023-01-25T12:54:18;2.26;91.72
70421;SHT31;57848;51.938;15.520;2023-01-25T12:56:52;2.27;92.21
70421;SHT31;57848;51.938;15.520;2023-01-25T13:02:27;2.23;92.12
70421;SHT31;57848;51.938;15.520;2023-01-25T13:05:02;2.33;92.27
70421;SHT31;57848;51.938;15.520;2023-01-25T13:07:59;2.34;91.86
70421;SHT31;57848;51.938;15.520;2023-01-25T13:10:33;2.26;92.25
70421;SHT31;57848;51.938;15.520;2023-01-25T13:13:02;2.29;92.54
70421;SHT31;57848;51.938;15.520;2023-01-25T13:15:44;2.36;92.24
70421;SHT31;57848;51.938;15.520;2023-01-25T13:18:36;2.43;92.11
70421;SHT31;57848;51.938;15.520;2023-01-25T13:21:08;2.45;92.30
70421;SHT31;57848;51.938;15.520;2023-01-25T13:23:38;2.32;91.85
70421;SHT31;57848;51.938;15.520;2023-01-25T13:28:54;2.29;92.18
70421;SHT31;57848;51.938;15.520;2023-01-25T13:44:43;2.27;92.13
70421;SHT31;57848;51.938;15.520;2023-01-25T13:47:11;2.15;92.34
70421;SHT31;57848;51.938;15.520;2023-01-25T13:49:42;2.15;92.27
70421;SHT31;57848;51.938;15.520;2023-01-25T13:52:16;2.26;92.19
70421;SHT31;57848;51.938;15.520;2023-01-25T13:54:43;2.29;92.56
70421;SHT31;57848;51.938;15.520;2023-01-25T13:57:12;2.30;92.46
70421;SHT31;57848;51.938;15.520;2023-01-25T13:59:38;2.15;92.72
70421;SHT31;57848;51.938;15.520;2023-01-25T14:02:15;2.22;92.76
70421;SHT31;57848;51.938;15.520;2023-01-25T14:04:44;2.23;92.98
70421;SHT31;57848;51.938;15.520;2023-01-25T14:07:15;2.20;92.93
70421;SHT31;57848;51.938;15.520;2023-01-25T14:09:42;2.09;93.18
70421;SHT31;57848;51.938;15.520;2023-01-25T14:12:09;1.99;93.42
70421;SHT31;57848;51.938;15.520;2023-01-25T14:14:35;1.99;93.48
70421;SHT31;57848;51.938;15.520;2023-01-25T14:19:40;2.06;93.01
70421;SHT31;57848;51.938;15.520;2023-01-25T14:22:18;2.17;93.22
70421;SHT31;57848;51.938;15.520;2023-01-25T14:24:44;2.09;93.07
70421;SHT31;57848;51.938;15.520;2023-01-25T14:27:13;2.15;93.40
70421;SHT31;57848;51.938;15.520;2023-01-25T14:29:40;2.12;92.85
70421;SHT31;57848;51.938;15.520;2023-01-25T14:32:06;2.16;93.00
70421;SHT31;57848;51.938;15.520;2023-01-25T14:34:31;2.19;92.66
70421;SHT31;57848;51.938;15.520;2023-01-25T14:37:13;2.22;92.48
70421;SHT31;57848;51.938;15.520;2023-01-25T14:39:40;2.12;92.51
70421;SHT31;57848;51.938;15.520;2023-01-25T14:42:05;2.12;92.86
70421;SHT31;57848;51.938;15.520;2023-01-25T14:44:32;2.06;92.99
70421;SHT31;57848;51.938;15.520;2023-01-25T14:49:54;2.09;93.04
70421;SHT31;57848;51.938;15.520;2023-01-25T14:52:22;2.03;93.15
70421;SHT31;57848;51.938;15.520;2023-01-25T14:54:56;2.15;93.08
70421;SHT31;57848;51.938;15.520;2023-01-25T14:57:32;2.06;92.83
70421;SHT31;57848;51.938;15.520;2023-01-25T15:00:01;2.06;93.02
70421;SHT31;57848;51.938;15.520;2023-01-25T15:04:57;2.12;93.11
70421;SHT31;57848;51.938;15.520;2023-01-25T15:07:47;2.03;93.27
70421;SHT31;57848;51.938;15.520;2023-01-25T15:10:25;2.15;93.29
70421;SHT31;57848;51.938;15.520;2023-01-25T15:15:53;2.12;93.05
70421;SHT31;57848;51.938;15.520;2023-01-25T15:18:48;1.99;93.18
70421;SHT31;57848;51.938;15.520;2023-01-25T15:21:31;2.05;93.28
70421;SHT31;57848;51.938;15.520;2023-01-25T15:23:58;2.05;93.29
70421;SHT31;57848;51.938;15.520;2023-01-25T15:26:30;2.07;92.54
70421;SHT31;57848;51.938;15.520;2023-01-25T15:29:01;2.02;93.18
70421;SHT31;57848;51.938;15.520;2023-01-25T15:31:28;2.06;93.10
70421;SHT31;57848;51.938;15.520;2023-01-25T15:33:55;2.05;93.13
70421;SHT31;57848;51.938;15.520;2023-01-25T15:36:21;1.95;93.55
70421;SHT31;57848;51.938;15.520;2023-01-25T15:38:47;1.99;93.27
70421;SHT31;57848;51.938;15.520;2023-01-25T15:41:13;2.01;93.35
70421;SHT31;57848;51.938;15.520;2023-01-25T15:43:39;1.91;93.69
70421;SHT31;57848;51.938;15.520;2023-01-25T15:46:05;1.87;93.94
70421;SHT31;57848;51.938;15.520;2023-01-25T15:48:33;1.92;93.75
70421;SHT31;57848;51.938;15.520;2023-01-25T15:51:00;1.93;93.67
70421;SHT31;57848;51.938;15.520;2023-01-25T15:53:25;1.89;93.63
70421;SHT31;57848;51.938;15.520;2023-01-25T15:56:02;1.85;93.54
70421;SHT31;57848;51.938;15.520;2023-01-25T15:58:32;1.92;93.48
70421;SHT31;57848;51.938;15.520;2023-01-25T16:00:58;1.96;93.21
70421;SHT31;57848;51.938;15.520;2023-01-25T16:03:25;1.92;93.53
70421;SHT31;57848;51.938;15.520;2023-01-25T16:06:03;1.86;93.65
70421;SHT31;57848;51.938;15.520;2023-01-25T16:08:29;1.89;93.55
70421;SHT31;57848;51.938;15.520;2023-01-25T16:10:55;2.06;93.27
70421;SHT31;57848;51.938;15.520;2023-01-25T16:13:21;1.85;93.57
70421;SHT31;57848;51.938;15.520;2023-01-25T16:15:51;1.91;93.20
70421;SHT31;57848;51.938;15.520;2023-01-25T16:18:17;1.75;93.63
70421;SHT31;57848;51.938;15.520;2023-01-25T16:20:42;1.75;93.73
70421;SHT31;57848;51.938;15.520;2023-01-25T16:23:09;1.69;93.96
70421;SHT31;57848;51.938;15.520;2023-01-25T16:25:37;1.75;93.82
70421;SHT31;57848;51.938;15.520;2023-01-25T16:28:03;1.72;93.96
70421;SHT31;57848;51.938;15.520;2023-01-25T16:30:28;1.78;94.01
70421;SHT31;57848;51.938;15.520;2023-01-25T16:32:56;1.82;93.77
70421;SHT31;57848;51.938;15.520;2023-01-25T16:35:22;1.85;94.10
70421;SHT31;57848;51.938;15.520;2023-01-25T16:37:48;1.89;93.85
70421;SHT31;57848;51.938;15.520;2023-01-25T16:40:23;1.89;93.97
70421;SHT31;57848;51.938;15.520;2023-01-25T16:42:49;1.75;94.05
70421;SHT31;57848;51.938;15.520;2023-01-25T16:45:15;1.79;93.82
70421;SHT31;57848;51.938;15.520;2023-01-25T16:47:42;1.71;93.58
70421;SHT31;57848;51.938;15.520;2023-01-25T16:50:19;1.71;93.64
70421;SHT31;57848;51.938;15.520;2023-01-25T16:52:45;1.75;93.92
70421;SHT31;57848;51.938;15.520;2023-01-25T16:55:13;1.82;93.83
70421;SHT31;57848;51.938;15.520;2023-01-25T16:57:40;1.82;93.96
70421;SHT31;57848;51.938;15.520;2023-01-25T17:00:10;1.75;93.84
70421;SHT31;57848;51.938;15.520;2023-01-25T17:02:37;1.75;94.25
70421;SHT31;57848;51.938;15.520;2023-01-25T17:05:03;1.76;94.36
70421;SHT31;57848;51.938;15.520;2023-01-25T17:07:29;1.82;94.00
70421;SHT31;57848;51.938;15.520;2023-01-25T17:09:55;1.76;93.87
70421;SHT31;57848;51.938;15.520;2023-01-25T17:12:21;1.78;94.32
70421;SHT31;57848;51.938;15.520;2023-01-25T17:14:46;1.85;94.28
70421;SHT31;57848;51.938;15.520;2023-01-25T17:17:11;1.79;94.10
70421;SHT31;57848;51.938;15.520;2023-01-25T17:19:37;1.79;94.17
70421;SHT31;57848;51.938;15.520;2023-01-25T17:22:02;1.89;93.76